^^
Station Historical Data
Daily Summary for May 22, 2019 Units:  English    Metric   Both
« Previous Day
Next Day »
Daily Weekly Monthly Yearly Custom
  High: Low: Average:
Temperature: 54.5 °F 41.1 °F 45.8 °F
Dew Point: 45.8 °F 35.1 °F 42 °F
Humidity: 93% 48% 88%
Wind Speed: 23mph 3mph 13.2mph
Wind Gust: 32mph - -
Wind- - ESE
Pressure: 29.82 in 29.51 in -
Precipitation: 0.41 in    
Historical Graphs
 
 
Tabular Data for May 22, 2019
Time Temperature Dew Point Pressure Wind Wind Speed Wind Gust Humidity Rainfall Rate (Hourly) solar Conditions
00:04 54.4 °F 36.6 °F 29.60 in NE 17 mph 19 mph 51% 0 in 0.00 W/m2
00:09 54.3 °F 36.5 °F 29.59 in ENE 17 mph 20 mph 51% 0 in 0.00 W/m2
00:14 54.3 °F 36 °F 29.60 in NE 15 mph 20 mph 50% 0 in 0.00 W/m2
00:19 54.4 °F 36.1 °F 29.59 in NE 13 mph 20 mph 50% 0 in 0.00 W/m2
00:24 54.4 °F 36.1 °F 29.59 in NE 9 mph 20 mph 50% 0 in 0.00 W/m2
00:29 54.3 °F 36 °F 29.59 in NE 15 mph 20 mph 50% 0 in 0.00 W/m2
00:34 54.3 °F 35.5 °F 29.59 in NE 10 mph 24 mph 49% 0 in 0.00 W/m2
00:39 54.4 °F 35.6 °F 29.59 in ENE 17 mph 26 mph 49% 0 in 0.00 W/m2
00:44 54.5 °F 35.2 °F 29.59 in ENE 16 mph 26 mph 48% 0 in 0.00 W/m2
00:49 54.4 °F 35.1 °F 29.59 in NE 14 mph 26 mph 48% 0 in 0.00 W/m2
00:54 54.3 °F 35.5 °F 29.59 in NE 14 mph 26 mph 49% 0 in 0.00 W/m2
00:59 54.2 °F 35.4 °F 29.59 in ENE 9 mph 22 mph 49% 0 in 0.00 W/m2
01:04 54.1 °F 35.3 °F 29.59 in NE 15 mph 22 mph 49% 0 in 0.00 W/m2
01:09 54 °F 35.3 °F 29.59 in ENE 13 mph 22 mph 49% 0 in 0.00 W/m2
01:14 54 °F 35.3 °F 29.59 in East 16 mph 22 mph 49% 0 in 0.00 W/m2
01:19 53.9 °F 35.7 °F 29.58 in NNE 9 mph 22 mph 50% 0 in 0.00 W/m2
01:24 53.8 °F 35.6 °F 29.58 in ENE 23 mph 23 mph 50% 0 in 0.00 W/m2
01:29 53.6 °F 35.4 °F 29.58 in NE 17 mph 23 mph 50% 0 in 0.00 W/m2
01:34 53.4 °F 36.2 °F 29.59 in East 17 mph 23 mph 52% 0 in 0.00 W/m2
01:39 51.4 °F 38.8 °F 29.58 in ESE 9 mph 23 mph 62% 0 in 0.00 W/m2
01:44 50.1 °F 39.6 °F 29.59 in ESE 12 mph 23 mph 67% 0 in 0.00 W/m2
01:49 49.3 °F 39.9 °F 29.59 in SE 17 mph 17 mph 70% 0 in 0.00 W/m2
01:54 48.7 °F 40.4 °F 29.59 in ESE 9 mph 18 mph 73% 0 in 0.00 W/m2
01:59 48.2 °F 40.6 °F 29.59 in SE 10 mph 18 mph 75% 0 in 0.00 W/m2
02:04 47.9 °F 41.4 °F 29.58 in East 12 mph 18 mph 78% 0 in 0.00 W/m2
02:09 47.4 °F 41.5 °F 29.58 in East 9 mph 20 mph 80% 0 in 0.00 W/m2
02:14 47.2 °F 41.7 °F 29.58 in ESE 6 mph 20 mph 81% 0 in 0.00 W/m2
02:19 46.8 °F 41.9 °F 29.57 in East 9 mph 13 mph 83% 0 in 0.00 W/m2
02:24 46.5 °F 41.9 °F 29.57 in East 9 mph 14 mph 84% 0 in 0.00 W/m2
02:29 46.4 °F 42.1 °F 29.57 in ENE 11 mph 16 mph 85% 0 in 0.00 W/m2
02:34 46.3 °F 42 °F 29.57 in ENE 9 mph 16 mph 85% 0 in 0.00 W/m2
02:39 46.1 °F 42.1 °F 29.57 in East 9 mph 15 mph 86% 0.01 in 0.00 W/m2
02:44 46 °F 42 °F 29.57 in NE 11 mph 16 mph 86% 0.01 in 0.00 W/m2
02:49 46 °F 42.3 °F 29.57 in NE 9 mph 16 mph 87% 0.01 in 0.00 W/m2
02:54 46 °F 42.3 °F 29.56 in NE 12 mph 18 mph 87% 0.02 in 0.00 W/m2
02:59 45.9 °F 42.2 °F 29.55 in NE 13 mph 18 mph 87% 0.02 in 0.00 W/m2
03:04 46.1 °F 42.4 °F 29.56 in NE 20 mph 26 mph 87% 0.02 in 0.00 W/m2
03:09 46.4 °F 42.4 °F 29.55 in ENE 10 mph 26 mph 86% 0.03 in 0.00 W/m2
03:14 46.4 °F 42.4 °F 29.55 in NE 12 mph 26 mph 86% 0.03 in 0.00 W/m2
03:19 46.5 °F 42.5 °F 29.55 in NE 15 mph 26 mph 86% 0.03 in 0.00 W/m2
03:24 46.4 °F 42.1 °F 29.55 in NE 18 mph 23 mph 85% 0.03 in 0.00 W/m2
03:29 46.3 °F 42.3 °F 29.54 in ENE 18 mph 24 mph 86% 0.03 in 0.00 W/m2
03:34 46.3 °F 42.3 °F 29.54 in NE 14 mph 26 mph 86% 0.03 in 0.00 W/m2
03:39 46.1 °F 42.1 °F 29.54 in NNE 12 mph 26 mph 86% 0.02 in 0.00 W/m2
03:44 46.1 °F 42.4 °F 29.54 in ENE 17 mph 23 mph 87% 0.02 in 0.00 W/m2
03:49 46 °F 42.3 °F 29.54 in ENE 18 mph 23 mph 87% 0.03 in 0.00 W/m2
03:54 45.9 °F 42.2 °F 29.53 in NNE 18 mph 22 mph 87% 0.02 in 0.00 W/m2
03:59 45.8 °F 42.4 °F 29.53 in NE 16 mph 25 mph 88% 0.02 in 0.00 W/m2
04:04 45.7 °F 42.3 °F 29.53 in NE 15 mph 25 mph 88% 0.03 in 0.00 W/m2
04:09 45.6 °F 42.3 °F 29.53 in NE 22 mph 24 mph 88% 0.02 in 0.00 W/m2
04:14 45.5 °F 42.2 °F 29.53 in NE 11 mph 24 mph 88% 0.03 in 0.00 W/m2
04:19 45.4 °F 42.3 °F 29.53 in NE 18 mph 29 mph 89% 0.03 in 0.00 W/m2
04:24 45.5 °F 42.2 °F 29.52 in NE 12 mph 29 mph 88% 0.04 in 0.00 W/m2
04:29 45.5 °F 42.2 °F 29.52 in NE 10 mph 29 mph 88% 0.04 in 0.00 W/m2
04:34 45.4 °F 42.3 °F 29.53 in NE 20 mph 29 mph 89% 0.04 in 0.00 W/m2
04:39 45.2 °F 41.9 °F 29.52 in East 18 mph 28 mph 88% 0.05 in 0.00 W/m2
04:44 44.9 °F 41.6 °F 29.52 in ENE 17 mph 32 mph 88% 0.06 in 0.00 W/m2
04:49 44.6 °F 41.3 °F 29.52 in ENE 16 mph 32 mph 88% 0.06 in 0.00 W/m2
04:54 44.3 °F 41.3 °F 29.53 in NE 17 mph 30 mph 89% 0.07 in 0.00 W/m2
04:59 44.2 °F 41.2 °F 29.52 in ENE 19 mph 30 mph 89% 0.08 in 0.00 W/m2
05:04 44 °F 41 °F 29.52 in ENE 13 mph 31 mph 89% 0.08 in 0.00 W/m2
05:09 43.7 °F 40.7 °F 29.52 in East 20 mph 31 mph 89% 0.1 in 0.00 W/m2
05:14 43.5 °F 40.8 °F 29.52 in NE 18 mph 29 mph 90% 0.1 in 0.00 W/m2
05:19 43.4 °F 40.7 °F 29.52 in ESE 16 mph 29 mph 90% 0.11 in 0.00 W/m2
05:24 43.3 °F 40.6 °F 29.52 in East 11 mph 29 mph 90% 0.11 in 0.00 W/m2
05:29 43.2 °F 40.5 °F 29.52 in East 8 mph 25 mph 90% 0.13 in 0.00 W/m2
05:34 43 °F 40.3 °F 29.51 in East 11 mph 25 mph 90% 0.14 in 0.00 W/m2
05:39 42.9 °F 40.5 °F 29.51 in ENE 15 mph 25 mph 91% 0.14 in 0.00 W/m2
05:44 42.8 °F 40.4 °F 29.51 in ENE 6 mph 22 mph 91% 0.14 in 0.00 W/m2
05:49 42.8 °F 40.4 °F 29.51 in NE 14 mph 22 mph 91% 0.14 in 0.00 W/m2
05:54 42.8 °F 40.4 °F 29.51 in East 14 mph 22 mph 91% 0.14 in 0.00 W/m2
05:59 42.7 °F 40.5 °F 29.51 in ENE 12 mph 19 mph 92% 0.14 in 0.00 W/m2
06:04 42.6 °F 40.4 °F 29.51 in ENE 14 mph 19 mph 92% 0.14 in 0.00 W/m2
06:09 42.4 °F 40.2 °F 29.51 in East 16 mph 21 mph 92% 0.13 in 0.00 W/m2
06:14 42.3 °F 40.1 °F 29.52 in ENE 15 mph 21 mph 92% 0.13 in 0.00 W/m2
06:19 42 °F 39.8 °F 29.52 in ENE 10 mph 20 mph 92% 0.15 in 0.00 W/m2
06:24 41.8 °F 39.6 °F 29.52 in ENE 19 mph 23 mph 92% 0.15 in 5.00 W/m2
06:29 41.3 °F 39.2 °F 29.52 in ENE 14 mph 26 mph 92% 0.14 in 7.00 W/m2
06:34 41.1 °F 39 °F 29.52 in NE 14 mph 26 mph 92% 0.14 in 9.00 W/m2
06:39 41.1 °F 39 °F 29.52 in ENE 9 mph 26 mph 92% 0.13 in 12.00 W/m2
06:44 41.1 °F 39 °F 29.51 in ENE 15 mph 26 mph 92% 0.12 in 25.00 W/m2
06:49 41.1 °F 39 °F 29.51 in NE 9 mph 24 mph 92% 0.12 in 30.00 W/m2
06:54 41.1 °F 39 °F 29.51 in ENE 18 mph 23 mph 92% 0.11 in 32.00 W/m2
06:59 41.3 °F 39.2 °F 29.51 in NE 15 mph 23 mph 92% 0.1 in 26.00 W/m2
07:04 41.3 °F 39.2 °F 29.51 in ENE 14 mph 19 mph 92% 0.09 in 25.00 W/m2
07:09 41.5 °F 39.3 °F 29.51 in ENE 12 mph 19 mph 92% 0.07 in 28.00 W/m2
07:14 41.6 °F 39.4 °F 29.51 in NE 17 mph 20 mph 92% 0.07 in 21.00 W/m2
07:19 41.8 °F 39.6 °F 29.51 in NE 13 mph 20 mph 92% 0.04 in 21.00 W/m2
07:24 41.9 °F 39.7 °F 29.51 in ENE 11 mph 19 mph 92% 0.04 in 32.00 W/m2
07:29 42 °F 39.8 °F 29.51 in NNE 12 mph 19 mph 92% 0.03 in 39.00 W/m2
07:34 42.1 °F 39.9 °F 29.51 in NNE 8 mph 19 mph 92% 0.02 in 42.00 W/m2
07:39 42.2 °F 40 °F 29.51 in NNE 12 mph 20 mph 92% 0.02 in 37.00 W/m2
07:44 42.1 °F 39.9 °F 29.51 in NE 13 mph 21 mph 92% 0.02 in 44.00 W/m2
07:49 42.1 °F 39.9 °F 29.51 in NE 11 mph 21 mph 92% 0.01 in 42.00 W/m2
07:54 41.9 °F 39.7 °F 29.51 in NE 12 mph 21 mph 92% 0.01 in 39.00 W/m2
07:59 41.8 °F 39.6 °F 29.51 in NE 12 mph 21 mph 92% 0.01 in 40.00 W/m2
08:04 41.9 °F 39.7 °F 29.51 in NE 18 mph 23 mph 92% 0.01 in 39.00 W/m2
08:09 41.9 °F 39.7 °F 29.51 in NNE 12 mph 25 mph 92% 0.01 in 42.00 W/m2
08:14 41.9 °F 39.7 °F 29.51 in NE 16 mph 25 mph 92% 0.01 in 35.00 W/m2
08:19 42 °F 39.8 °F 29.51 in NNE 14 mph 25 mph 92% 0.01 in 33.00 W/m2
08:24 42 °F 39.8 °F 29.51 in NE 11 mph 25 mph 92% 0 in 39.00 W/m2
08:29 42 °F 39.8 °F 29.51 in NNE 9 mph 23 mph 92% 0 in 42.00 W/m2
08:34 42 °F 39.8 °F 29.51 in NE 14 mph 23 mph 92% 0 in 44.00 W/m2
08:39 42.1 °F 39.9 °F 29.51 in NNE 11 mph 20 mph 92% 0 in 49.00 W/m2
08:44 42.1 °F 39.9 °F 29.51 in North 18 mph 24 mph 92% 0 in 56.00 W/m2
08:49 42.2 °F 40 °F 29.51 in NNE 15 mph 24 mph 92% 0 in 56.00 W/m2
08:54 42.2 °F 40 °F 29.51 in NNE 8 mph 24 mph 92% 0 in 62.00 W/m2
08:59 42.2 °F 40.3 °F 29.51 in NNE 9 mph 24 mph 93% 0 in 65.00 W/m2
09:04 42.1 °F 39.9 °F 29.51 in NE 17 mph 21 mph 92% 0 in 67.00 W/m2
09:09 42 °F 39.8 °F 29.51 in NE 17 mph 22 mph 92% 0 in 65.00 W/m2
09:14 42 °F 39.8 °F 29.51 in NNE 14 mph 22 mph 92% 0 in 70.00 W/m2
09:19 41.9 °F 39.7 °F 29.51 in NNE 18 mph 24 mph 92% 0.01 in 72.00 W/m2
09:24 41.9 °F 39.7 °F 29.51 in NNE 16 mph 24 mph 92% 0.01 in 83.00 W/m2
09:29 42 °F 39.8 °F 29.51 in NNE 20 mph 24 mph 92% 0.02 in 102.00 W/m2
09:34 42.2 °F 40 °F 29.51 in North 18 mph 24 mph 92% 0.02 in 113.00 W/m2
09:39 42.3 °F 40.4 °F 29.51 in NNE 14 mph 22 mph 93% 0.02 in 111.00 W/m2
09:44 42.3 °F 40.4 °F 29.51 in NNE 15 mph 24 mph 93% 0.02 in 104.00 W/m2
09:49 42.4 °F 40.5 °F 29.51 in North 12 mph 24 mph 93% 0.02 in 114.00 W/m2
09:54 42.5 °F 40.6 °F 29.51 in NNE 20 mph 23 mph 93% 0.02 in 128.00 W/m2
09:59 42.5 °F 40.6 °F 29.51 in NNE 16 mph 25 mph 93% 0.02 in 132.00 W/m2
10:04 42.5 °F 40.6 °F 29.51 in North 19 mph 28 mph 93% 0.02 in 135.00 W/m2
10:09 42.4 °F 40.5 °F 29.51 in North 19 mph 28 mph 93% 0.02 in 123.00 W/m2
10:14 42.3 °F 40.4 °F 29.51 in NNE 19 mph 25 mph 93% 0.02 in 128.00 W/m2
10:19 42.4 °F 40.5 °F 29.51 in NNE 12 mph 25 mph 93% 0.01 in 137.00 W/m2
10:24 42.6 °F 40.7 °F 29.51 in NNE 13 mph 25 mph 93% 0.01 in 165.00 W/m2
10:29 42.7 °F 40.8 °F 29.51 in NNE 18 mph 25 mph 93% 0 in 114.00 W/m2
10:34 42.7 °F 40.8 °F 29.51 in NNE 15 mph 23 mph 93% 0 in 111.00 W/m2
10:39 42.7 °F 40.8 °F 29.51 in NE 9 mph 23 mph 93% 0 in 137.00 W/m2
10:44 42.8 °F 40.9 °F 29.51 in NNE 14 mph 25 mph 93% 0 in 148.00 W/m2
10:49 42.9 °F 41 °F 29.51 in NE 13 mph 25 mph 93% 0 in 167.00 W/m2
10:54 43.1 °F 41.2 °F 29.51 in North 15 mph 23 mph 93% 0 in 141.00 W/m2
10:59 43.2 °F 41.3 °F 29.51 in NNE 16 mph 27 mph 93% 0 in 160.00 W/m2
11:04 43.3 °F 41.4 °F 29.52 in NE 14 mph 27 mph 93% 0 in 204.00 W/m2
11:09 43.7 °F 41.8 °F 29.52 in NNE 19 mph 21 mph 93% 0 in 155.00 W/m2
11:14 43.7 °F 41.8 °F 29.52 in North 16 mph 27 mph 93% 0 in 120.00 W/m2
11:19 43.8 °F 41.9 °F 29.52 in NNE 11 mph 27 mph 93% 0 in 141.00 W/m2
11:24 43.8 °F 41.6 °F 29.52 in NNE 19 mph 27 mph 92% 0 in 167.00 W/m2
11:29 44 °F 41.8 °F 29.52 in North 14 mph 27 mph 92% 0 in 162.00 W/m2
11:34 44.1 °F 41.9 °F 29.53 in NNE 17 mph 26 mph 92% 0.01 in 135.00 W/m2
11:39 44.1 °F 41.9 °F 29.53 in North 17 mph 26 mph 92% 0.01 in 142.00 W/m2
11:44 44.1 °F 41.9 °F 29.53 in NNE 16 mph 26 mph 92% 0.01 in 160.00 W/m2
11:49 44.2 °F 42 °F 29.53 in NNE 20 mph 25 mph 92% 0.01 in 169.00 W/m2
11:54 44.3 °F 42.1 °F 29.54 in NE 15 mph 25 mph 92% 0.01 in 141.00 W/m2
11:59 44.5 °F 42.3 °F 29.54 in NNE 13 mph 23 mph 92% 0.01 in 153.00 W/m2
12:04 44.5 °F 42.3 °F 29.54 in NNE 22 mph 24 mph 92% 0.01 in 167.00 W/m2
12:09 44.6 °F 42.4 °F 29.54 in NE 13 mph 24 mph 92% 0.01 in 144.00 W/m2
12:14 44.7 °F 42.5 °F 29.54 in NE 17 mph 24 mph 92% 0.01 in 151.00 W/m2
12:19 45 °F 42.8 °F 29.54 in ENE 16 mph 24 mph 92% 0.01 in 206.00 W/m2
12:24 45.2 °F 43 °F 29.54 in NE 17 mph 21 mph 92% 0.01 in 204.00 W/m2
12:29 45.4 °F 43.2 °F 29.54 in NE 16 mph 21 mph 92% 0.01 in 236.00 W/m2
12:34 45.4 °F 43.2 °F 29.55 in North 16 mph 19 mph 92% 0 in 137.00 W/m2
12:39 45.4 °F 43.2 °F 29.54 in NNE 11 mph 20 mph 92% 0 in 165.00 W/m2
12:44 45.4 °F 43.5 °F 29.54 in NNE 13 mph 20 mph 93% 0 in 156.00 W/m2
12:49 45.4 °F 43.5 °F 29.54 in North 19 mph 20 mph 93% 0 in 155.00 W/m2
12:54 45.4 °F 43.5 °F 29.54 in North 13 mph 21 mph 93% 0 in 118.00 W/m2
12:59 45.5 °F 43.6 °F 29.54 in North 20 mph 21 mph 93% 0 in 162.00 W/m2
13:04 45.5 °F 43.6 °F 29.54 in North 21 mph 24 mph 93% 0 in 109.00 W/m2
13:09 45.6 °F 43.7 °F 29.55 in NE 15 mph 24 mph 93% 0 in 109.00 W/m2
13:14 45.7 °F 43.5 °F 29.54 in North 16 mph 22 mph 92% 0 in 111.00 W/m2
13:19 45.9 °F 44 °F 29.55 in North 15 mph 24 mph 93% 0 in 213.00 W/m2
13:24 46.3 °F 44.4 °F 29.55 in NNE 13 mph 24 mph 93% 0 in 294.00 W/m2
13:29 46.8 °F 44.9 °F 29.55 in North 13 mph 24 mph 93% 0 in 269.00 W/m2
13:34 47.2 °F 45 °F 29.55 in North 17 mph 24 mph 92% 0 in 343.00 W/m2
13:39 47.4 °F 45.2 °F 29.55 in North 17 mph 24 mph 92% 0 in 260.00 W/m2
13:44 47.7 °F 45.2 °F 29.55 in North 19 mph 24 mph 91% 0 in 281.00 W/m2
13:49 47.9 °F 45.4 °F 29.55 in North 14 mph 27 mph 91% 0 in 174.00 W/m2
13:54 47.6 °F 44.8 °F 29.55 in North 17 mph 27 mph 90% 0 in 148.00 W/m2
13:59 47.5 °F 44.7 °F 29.55 in North 19 mph 27 mph 90% 0 in 135.00 W/m2
14:04 47.5 °F 44.7 °F 29.56 in NNE 17 mph 27 mph 90% 0 in 220.00 W/m2
14:09 47.6 °F 44.8 °F 29.56 in NNE 14 mph 24 mph 90% 0 in 204.00 W/m2
14:14 47.8 °F 45 °F 29.57 in North 13 mph 24 mph 90% 0 in 116.00 W/m2
14:19 47.8 °F 45 °F 29.57 in NNE 15 mph 24 mph 90% 0 in 156.00 W/m2
14:24 47.7 °F 44.9 °F 29.57 in NE 19 mph 24 mph 90% 0 in 248.00 W/m2
14:29 47.7 °F 44.9 °F 29.57 in North 13 mph 22 mph 90% 0 in 104.00 W/m2
14:34 47.6 °F 44.8 °F 29.57 in North 16 mph 25 mph 90% 0.01 in 192.00 W/m2
14:39 47.6 °F 44.8 °F 29.57 in NNE 14 mph 25 mph 90% 0.01 in 91.00 W/m2
14:44 47.5 °F 44.7 °F 29.57 in North 17 mph 23 mph 90% 0.01 in 114.00 W/m2
14:49 47.4 °F 44.6 °F 29.57 in NNW 14 mph 23 mph 90% 0.01 in 181.00 W/m2
14:54 47.6 °F 45.1 °F 29.57 in North 16 mph 22 mph 91% 0.01 in 199.00 W/m2
14:59 47.6 °F 45.1 °F 29.57 in North 15 mph 22 mph 91% 0.01 in 153.00 W/m2
15:04 47.7 °F 45.2 °F 29.58 in North 16 mph 20 mph 91% 0.01 in 279.00 W/m2
15:09 47.9 °F 45.4 °F 29.58 in North 13 mph 22 mph 91% 0.01 in 107.00 W/m2
15:14 47.7 °F 44.9 °F 29.58 in NNE 11 mph 24 mph 90% 0.01 in 200.00 W/m2
15:19 47.8 °F 45.3 °F 29.59 in NNE 13 mph 24 mph 91% 0.01 in 246.00 W/m2
15:24 48.3 °F 45.8 °F 29.59 in North 15 mph 21 mph 91% 0.01 in 146.00 W/m2
15:29 48.2 °F 45.1 °F 29.59 in NNE 17 mph 22 mph 89% 0.01 in 84.00 W/m2
15:34 47.8 °F 44.7 °F 29.59 in North 21 mph 25 mph 89% 0 in 84.00 W/m2
15:39 47.2 °F 44.1 °F 29.60 in North 20 mph 25 mph 89% 0 in 114.00 W/m2
15:44 47.1 °F 44.3 °F 29.60 in NNE 15 mph 25 mph 90% 0 in 155.00 W/m2
15:49 47.3 °F 44.5 °F 29.60 in North 15 mph 25 mph 90% 0 in 146.00 W/m2
15:54 47.3 °F 44.5 °F 29.60 in North 13 mph 21 mph 90% 0 in 105.00 W/m2
15:59 47.3 °F 44.5 °F 29.60 in North 14 mph 21 mph 90% 0 in 137.00 W/m2
16:04 47.3 °F 44.8 °F 29.61 in North 8 mph 21 mph 91% 0 in 211.00 W/m2
16:09 47.6 °F 45.4 °F 29.61 in NNE 9 mph 21 mph 92% 0 in 195.00 W/m2
16:14 47.8 °F 45.6 °F 29.61 in NNE 19 mph 21 mph 92% 0 in 156.00 W/m2
16:19 47.6 °F 45.1 °F 29.61 in North 16 mph 21 mph 91% 0 in 62.00 W/m2
16:24 47.2 °F 44.7 °F 29.61 in North 19 mph 21 mph 91% 0 in 97.00 W/m2
16:29 47.1 °F 44.9 °F 29.62 in North 13 mph 20 mph 92% 0 in 158.00 W/m2
16:34 47.2 °F 45 °F 29.62 in NNW 14 mph 21 mph 92% 0 in 230.00 W/m2
16:39 47.4 °F 45.2 °F 29.62 in North 10 mph 21 mph 92% 0 in 202.00 W/m2
16:44 47.5 °F 45.3 °F 29.62 in NNE 17 mph 22 mph 92% 0 in 83.00 W/m2
16:49 47.2 °F 44.7 °F 29.63 in North 18 mph 22 mph 91% 0 in 107.00 W/m2
16:54 47.2 °F 44.7 °F 29.63 in North 14 mph 25 mph 91% 0 in 163.00 W/m2
16:59 47.2 °F 44.7 °F 29.63 in North 16 mph 25 mph 91% 0 in 169.00 W/m2
17:04 47.4 °F 44.9 °F 29.63 in NNE 22 mph 23 mph 91% 0 in 58.00 W/m2
17:09 47.3 °F 44.8 °F 29.64 in North 16 mph 22 mph 91% 0 in 167.00 W/m2
17:14 47.3 °F 44.8 °F 29.64 in North 17 mph 22 mph 91% 0 in 190.00 W/m2
17:19 47.4 °F 44.9 °F 29.64 in North 13 mph 22 mph 91% 0 in 97.00 W/m2
17:24 47.5 °F 45 °F 29.64 in North 16 mph 22 mph 91% 0 in 93.00 W/m2
17:29 47.6 °F 45.1 °F 29.65 in North 11 mph 20 mph 91% 0 in 142.00 W/m2
17:34 47.6 °F 45.1 °F 29.65 in North 11 mph 20 mph 91% 0 in 86.00 W/m2
17:39 47.4 °F 44.6 °F 29.65 in North 11 mph 19 mph 90% 0 in 44.00 W/m2
17:44 47.3 °F 44.5 °F 29.65 in North 11 mph 21 mph 90% 0 in 60.00 W/m2
17:49 47.2 °F 44.4 °F 29.66 in North 16 mph 21 mph 90% 0 in 102.00 W/m2
17:54 47.3 °F 44.2 °F 29.66 in North 12 mph 21 mph 89% 0 in 116.00 W/m2
17:59 47.5 °F 44.4 °F 29.66 in NNW 13 mph 21 mph 89% 0 in 62.00 W/m2
18:04 47.5 °F 44.1 °F 29.66 in North 13 mph 20 mph 88% 0 in 65.00 W/m2
18:09 47.5 °F 45.3 °F 29.66 in North 15 mph 20 mph 92% 0 in 51.00 W/m2
18:14 47.4 °F 44 °F 29.67 in NNW 14 mph 20 mph 88% 0 in 32.00 W/m2
18:19 47.1 °F 43.7 °F 29.67 in North 15 mph 20 mph 88% 0 in 53.00 W/m2
18:24 47 °F 43.9 °F 29.68 in NNW 9 mph 18 mph 89% 0 in 60.00 W/m2
18:29 47 °F 43.9 °F 29.68 in North 11 mph 19 mph 89% 0 in 91.00 W/m2
18:34 47 °F 43.9 °F 29.68 in North 11 mph 20 mph 89% 0 in 65.00 W/m2
18:39 47 °F 43.9 °F 29.68 in North 9 mph 20 mph 89% 0 in 70.00 W/m2
18:44 47 °F 43.9 °F 29.68 in North 9 mph 20 mph 89% 0 in 69.00 W/m2
18:49 47.1 °F 44 °F 29.68 in NNW 11 mph 20 mph 89% 0 in 56.00 W/m2
18:54 47 °F 43.6 °F 29.68 in North 16 mph 20 mph 88% 0 in 53.00 W/m2
18:59 46.9 °F 43.5 °F 29.68 in North 12 mph 20 mph 88% 0 in 42.00 W/m2
19:04 46.9 °F 43.5 °F 29.69 in North 10 mph 20 mph 88% 0 in 40.00 W/m2
19:09 47 °F 43.6 °F 29.69 in North 11 mph 20 mph 88% 0 in 47.00 W/m2
19:14 46.9 °F 43.8 °F 29.69 in North 12 mph 18 mph 89% 0 in 53.00 W/m2
19:19 47 °F 43.9 °F 29.69 in North 10 mph 18 mph 89% 0 in 56.00 W/m2
19:24 47 °F 43.9 °F 29.69 in NNW 11 mph 17 mph 89% 0 in 56.00 W/m2
19:29 47 °F 43.6 °F 29.69 in NNW 16 mph 19 mph 88% 0 in 44.00 W/m2
19:34 46.9 °F 43.5 °F 29.69 in North 14 mph 19 mph 88% 0 in 46.00 W/m2
19:39 46.9 °F 43.5 °F 29.70 in North 12 mph 19 mph 88% 0 in 32.00 W/m2
19:44 46.8 °F 43.1 °F 29.70 in NNW 13 mph 19 mph 87% 0 in 23.00 W/m2
19:49 46.8 °F 43.4 °F 29.70 in North 12 mph 18 mph 88% 0 in 30.00 W/m2
19:54 46.7 °F 43.3 °F 29.71 in North 12 mph 18 mph 88% 0 in 32.00 W/m2
19:59 46.5 °F 43.4 °F 29.71 in North 10 mph 17 mph 89% 0 in 33.00 W/m2
20:04 46.4 °F 43.3 °F 29.71 in North 10 mph 17 mph 89% 0 in 33.00 W/m2
20:09 46.4 °F 43.6 °F 29.71 in North 13 mph 17 mph 90% 0 in 26.00 W/m2
20:14 46.4 °F 43.6 °F 29.72 in North 10 mph 14 mph 90% 0 in 19.00 W/m2
20:19 46.4 °F 43.6 °F 29.72 in North 11 mph 14 mph 90% 0 in 19.00 W/m2
20:24 46.3 °F 43.5 °F 29.72 in North 11 mph 15 mph 90% 0 in 18.00 W/m2
20:29 46.3 °F 43.5 °F 29.72 in North 6 mph 15 mph 90% 0 in 14.00 W/m2
20:34 46.2 °F 43.4 °F 29.73 in NNW 6 mph 14 mph 90% 0 in 11.00 W/m2
20:39 46.2 °F 43.4 °F 29.73 in North 6 mph 14 mph 90% 0 in 5.00 W/m2
20:44 46.1 °F 43.6 °F 29.73 in North 6 mph 12 mph 91% 0 in 5.00 W/m2
20:49 46 °F 43.5 °F 29.73 in NNW 12 mph 15 mph 91% 0 in 9.00 W/m2
20:54 45.9 °F 43.4 °F 29.73 in NNW 10 mph 15 mph 91% 0 in 9.00 W/m2
20:59 45.7 °F 43.5 °F 29.74 in North 10 mph 15 mph 92% 0 in 9.00 W/m2
21:04 45.6 °F 43.4 °F 29.74 in NNW 6 mph 15 mph 92% 0 in 9.00 W/m2
21:09 45.5 °F 43.3 °F 29.74 in NNW 6 mph 12 mph 92% 0 in 5.00 W/m2
21:14 45.4 °F 43.2 °F 29.75 in North 9 mph 12 mph 92% 0 in 0.00 W/m2
21:19 45.3 °F 43.1 °F 29.75 in NNW 8 mph 12 mph 92% 0 in 0.00 W/m2
21:24 45.4 °F 43.2 °F 29.75 in NNW 6 mph 12 mph 92% 0 in 0.00 W/m2
21:29 45.3 °F 43.1 °F 29.75 in North 5 mph 13 mph 92% 0 in 0.00 W/m2
21:34 45.3 °F 43.1 °F 29.75 in NNW 6 mph 13 mph 92% 0 in 0.00 W/m2
21:39 45.3 °F 43.1 °F 29.76 in NNW 11 mph 11 mph 92% 0 in 0.00 W/m2
21:44 45.3 °F 43.1 °F 29.76 in NNW 6 mph 11 mph 92% 0 in 0.00 W/m2
21:49 45.3 °F 43.1 °F 29.76 in NW 11 mph 11 mph 92% 0 in 0.00 W/m2
21:54 45.4 °F 43.2 °F 29.77 in NNW 5 mph 11 mph 92% 0 in 0.00 W/m2
21:59 45.4 °F 43.2 °F 29.77 in NNW 11 mph 11 mph 92% 0 in 0.00 W/m2
22:04 45.4 °F 43.2 °F 29.77 in NW 9 mph 12 mph 92% 0 in 0.00 W/m2
22:09 45.4 °F 43.2 °F 29.78 in NNW 8 mph 12 mph 92% 0 in 0.00 W/m2
22:14 45.4 °F 43.2 °F 29.78 in NW 6 mph 11 mph 92% 0 in 0.00 W/m2
22:19 45.4 °F 43.2 °F 29.79 in NW 9 mph 11 mph 92% 0 in 0.00 W/m2
22:24 45.4 °F 43.2 °F 29.79 in NNW 6 mph 12 mph 92% 0 in 0.00 W/m2
22:29 45.4 °F 43.2 °F 29.79 in NW 8 mph 12 mph 92% 0 in 0.00 W/m2
22:34 45.4 °F 43.2 °F 29.80 in NW 5 mph 12 mph 92% 0 in 0.00 W/m2
22:39 45.4 °F 43.2 °F 29.80 in NW 10 mph 12 mph 92% 0 in 0.00 W/m2
22:44 45.4 °F 43.2 °F 29.80 in NNW 6 mph 10 mph 92% 0 in 0.00 W/m2
22:49 45.5 °F 43.3 °F 29.80 in NNW 8 mph 12 mph 92% 0 in 0.00 W/m2
22:54 45.4 °F 43.2 °F 29.81 in NNW 9 mph 12 mph 92% 0 in 0.00 W/m2
22:59 45.4 °F 43.2 °F 29.81 in NW 6 mph 12 mph 92% 0 in 0.00 W/m2
23:04 45.3 °F 43.1 °F 29.81 in NNW 8 mph 12 mph 92% 0 in 0.00 W/m2
23:09 45.3 °F 43.1 °F 29.81 in NNW 6 mph 11 mph 92% 0 in 0.00 W/m2
23:14 45.2 °F 43 °F 29.81 in NNW 11 mph 12 mph 92% 0 in 0.00 W/m2
23:19 45.2 °F 43 °F 29.81 in NNW 5 mph 12 mph 92% 0 in 0.00 W/m2
23:24 45.2 °F 43 °F 29.82 in NW 5 mph 11 mph 92% 0 in 0.00 W/m2
23:29 45.2 °F 43 °F 29.82 in NNW 6 mph 12 mph 92% 0 in 0.00 W/m2
23:34 45.2 °F 43 °F 29.82 in NW 5 mph 12 mph 92% 0 in 0.00 W/m2
23:39 45.2 °F 43 °F 29.82 in NNW 3 mph 10 mph 92% 0 in 0.00 W/m2
23:44 45.1 °F 42.9 °F 29.82 in NW 9 mph 10 mph 92% 0 in 0.00 W/m2
23:49 45.1 °F 42.9 °F 29.82 in NW 5 mph 10 mph 92% 0 in 0.00 W/m2
23:54 45 °F 43.1 °F 29.82 in NW 7 mph 10 mph 93% 0 in 0.00 W/m2
23:59 45.1 °F 43.2 °F 29.82 in NW 9 mph 10 mph 93% 0 in 0.00 W/m2
Bismarck, North Dakota, USA
Compliments of Weather Underground - 4 mb